Teton Village, Wyoming
Current Conditions -  °F | °C
As of 6:52 AM on Monday 24 Nov 2014 (Local Time) from KJAC Reporting Station
Overcast Overcast  
Wind Chill: 17°   Ceiling: 4400
Heat Index: 25°   Visibility: 10mi
Dew Point: 18°   Wind: 7mph
Humidity: 74%   Direction: 270°W
Pressure: 30.06"   Gusts: 18mph
Location:  43.59°N, 110.83°W
Report Text: KJAC 241352Z 27006G16KT 10SM BKN044 OVC050 M04/M08 A3006
Loading
Personal Weather Stations






























Interactive Weather Map New forecast layout! Learn more

10-Day Weather Forecast

Advertisements
Track Severe Weather on mobile